Terminal Aerodrome Forecast
Issued by NWS

Home | Current Version | Previous Version | Graphics & Text | Print | Product List | Glossary On
Versions: 1 2 3 4 5 6 7 8 9 10 11 12 13 14 15 16 17 18 19 20 21 22 23 24 25 26 27 28 29 30 31 32 33
000
FTUS43 KBIS 290500 AAA
TAFMOT
TAF AMD
KMOT 290545Z 2906/3006 28018G22KT 5SM -SHRA BR BKN015
     FM290800 30028G35KT P6SM OVC020
     FM291600 28018G25KT P6SM SCT060=

USA.gov is the U.S. government's official web portal to all federal, state and local government web resources and services.